sensor_id;sensor_type;location;lat;lon;timestamp;pressure;altitude;pressure_sealevel;temperature;humidity
60049;BME280;45925;45.544;6.756;2022-08-01T00:04:37;87537.34;;;17.89;48.50
60049;BME280;45925;45.544;6.756;2022-08-01T00:09:38;87545.91;;;17.89;48.59
60049;BME280;45925;45.544;6.756;2022-08-01T00:14:38;87534.84;;;18.16;47.81
60049;BME280;45925;45.544;6.756;2022-08-01T00:19:39;87541.03;;;18.07;48.14
60049;BME280;45925;45.544;6.756;2022-08-01T00:24:40;87537.69;;;17.68;48.96
60049;BME280;45925;45.544;6.756;2022-08-01T00:29:40;87538.72;;;17.83;48.78
60049;BME280;45925;45.544;6.756;2022-08-01T00:34:41;87541.09;;;17.52;48.81
60049;BME280;45925;45.544;6.756;2022-08-01T00:39:42;87537.97;;;17.63;48.81
60049;BME280;45925;45.544;6.756;2022-08-01T00:44:43;87535.28;;;17.98;48.42
60049;BME280;45925;45.544;6.756;2022-08-01T00:49:43;87542.41;;;17.43;49.69
60049;BME280;45925;45.544;6.756;2022-08-01T00:54:45;87541.22;;;17.20;50.45
60049;BME280;45925;45.544;6.756;2022-08-01T00:59:46;87539.09;;;17.07;51.48
60049;BME280;45925;45.544;6.756;2022-08-01T01:04:46;87529.47;;;17.27;51.39
60049;BME280;45925;45.544;6.756;2022-08-01T01:10:02;87532.34;;;17.41;49.96
60049;BME280;45925;45.544;6.756;2022-08-01T01:15:10;87534.56;;;17.39;49.70
60049;BME280;45925;45.544;6.756;2022-08-01T01:20:12;87539.53;;;17.28;49.82
60049;BME280;45925;45.544;6.756;2022-08-01T01:30:30;87535.28;;;17.39;49.41
60049;BME280;45925;45.544;6.756;2022-08-01T01:35:36;87541.50;;;16.64;52.01
60049;BME280;45925;45.544;6.756;2022-08-01T01:40:39;87542.81;;;16.74;51.40
60049;BME280;45925;45.544;6.756;2022-08-01T01:45:40;87537.69;;;16.93;50.13
60049;BME280;45925;45.544;6.756;2022-08-01T01:50:45;87537.94;;;17.04;50.68
60049;BME280;45925;45.544;6.756;2022-08-01T01:55:50;87543.50;;;16.71;51.59
60049;BME280;45925;45.544;6.756;2022-08-01T02:00:52;87544.56;;;17.01;50.61
60049;BME280;45925;45.544;6.756;2022-08-01T02:05:56;87537.03;;;16.80;51.27
60049;BME280;45925;45.544;6.756;2022-08-01T02:10:57;87541.53;;;16.99;51.23
60049;BME280;45925;45.544;6.756;2022-08-01T02:16:18;87546.53;;;16.57;51.82
60049;BME280;45925;45.544;6.756;2022-08-01T02:21:25;87543.06;;;16.84;51.41
60049;BME280;45925;45.544;6.756;2022-08-01T02:26:27;87538.44;;;16.94;50.81
60049;BME280;45925;45.544;6.756;2022-08-01T02:31:31;87544.00;;;16.92;50.64
60049;BME280;45925;45.544;6.756;2022-08-01T02:36:35;87554.72;;;16.59;51.57
60049;BME280;45925;45.544;6.756;2022-08-01T02:41:41;87546.03;;;16.67;51.61
60049;BME280;45925;45.544;6.756;2022-08-01T02:46:54;87544.59;;;16.70;50.65
60049;BME280;45925;45.544;6.756;2022-08-01T02:51:57;87548.72;;;16.55;51.39
60049;BME280;45925;45.544;6.756;2022-08-01T02:56:58;87544.09;;;16.64;51.19
60049;BME280;45925;45.544;6.756;2022-08-01T03:02:01;87528.97;;;16.02;53.42
60049;BME280;45925;45.544;6.756;2022-08-01T03:07:06;87534.22;;;16.06;53.19
60049;BME280;45925;45.544;6.756;2022-08-01T03:12:13;87528.97;;;16.34;52.95
60049;BME280;45925;45.544;6.756;2022-08-01T03:17:15;87523.84;;;16.06;53.39
60049;BME280;45925;45.544;6.756;2022-08-01T03:22:18;87520.50;;;16.53;52.29
60049;BME280;45925;45.544;6.756;2022-08-01T03:27:19;87514.31;;;16.42;52.60
60049;BME280;45925;45.544;6.756;2022-08-01T03:32:21;87513.66;;;16.45;52.33
60049;BME280;45925;45.544;6.756;2022-08-01T03:37:29;87515.75;;;16.07;52.29
60049;BME280;45925;45.544;6.756;2022-08-01T03:42:37;87519.25;;;16.31;52.46
60049;BME280;45925;45.544;6.756;2022-08-01T03:47:42;87520.78;;;16.32;52.24
60049;BME280;45925;45.544;6.756;2022-08-01T03:52:45;87523.59;;;16.27;53.17
60049;BME280;45925;45.544;6.756;2022-08-01T03:57:47;87528.97;;;16.34;52.99
60049;BME280;45925;45.544;6.756;2022-08-01T04:02:49;87522.69;;;16.35;52.17
60049;BME280;45925;45.544;6.756;2022-08-01T04:07:50;87523.38;;;16.16;53.46
60049;BME280;45925;45.544;6.756;2022-08-01T04:12:57;87534.63;;;16.08;53.75
60049;BME280;45925;45.544;6.756;2022-08-01T04:17:57;87526.16;;;15.79;54.01
60049;BME280;45925;45.544;6.756;2022-08-01T04:22:58;87521.56;;;15.88;53.95
60049;BME280;45925;45.544;6.756;2022-08-01T04:28:00;87522.84;;;15.94;53.73
60049;BME280;45925;45.544;6.756;2022-08-01T04:33:06;87523.53;;;16.07;53.44
60049;BME280;45925;45.544;6.756;2022-08-01T04:38:09;87520.88;;;15.75;54.42
60049;BME280;45925;45.544;6.756;2022-08-01T04:43:11;87529.97;;;15.98;53.70
60049;BME280;45925;45.544;6.756;2022-08-01T04:48:13;87522.91;;;15.98;54.10
60049;BME280;45925;45.544;6.756;2022-08-01T04:53:15;87527.78;;;15.71;54.21
60049;BME280;45925;45.544;6.756;2022-08-01T04:58:19;87528.59;;;15.60;54.54
60049;BME280;45925;45.544;6.756;2022-08-01T05:03:20;87528.94;;;15.86;53.88
60049;BME280;45925;45.544;6.756;2022-08-01T05:08:20;87526.53;;;16.09;53.54
60049;BME280;45925;45.544;6.756;2022-08-01T05:13:21;87531.38;;;16.11;54.52
60049;BME280;45925;45.544;6.756;2022-08-01T05:18:21;87526.44;;;15.62;55.92
60049;BME280;45925;45.544;6.756;2022-08-01T05:23:22;87522.44;;;15.92;55.12
60049;BME280;45925;45.544;6.756;2022-08-01T05:28:22;87518.97;;;15.88;55.39
60049;BME280;45925;45.544;6.756;2022-08-01T05:33:23;87518.59;;;16.02;55.50
60049;BME280;45925;45.544;6.756;2022-08-01T05:38:24;87514.13;;;16.03;54.82
60049;BME280;45925;45.544;6.756;2022-08-01T05:43:24;87515.47;;;15.97;55.82
60049;BME280;45925;45.544;6.756;2022-08-01T05:48:25;87513.28;;;15.99;55.60
60049;BME280;45925;45.544;6.756;2022-08-01T05:53:26;87520.06;;;16.03;55.45
60049;BME280;45925;45.544;6.756;2022-08-01T05:58:27;87519.16;;;15.96;56.09
60049;BME280;45925;45.544;6.756;2022-08-01T06:03:28;87511.97;;;16.05;55.38
60049;BME280;45925;45.544;6.756;2022-08-01T06:08:31;87513.13;;;15.91;56.50
60049;BME280;45925;45.544;6.756;2022-08-01T06:13:32;87513.00;;;16.16;55.74
60049;BME280;45925;45.544;6.756;2022-08-01T06:18:33;87515.31;;;16.21;55.41
60049;BME280;45925;45.544;6.756;2022-08-01T06:23:33;87511.47;;;16.15;56.04
60049;BME280;45925;45.544;6.756;2022-08-01T06:28:34;87509.22;;;16.29;55.36
60049;BME280;45925;45.544;6.756;2022-08-01T06:33:34;87507.13;;;16.35;55.39
60049;BME280;45925;45.544;6.756;2022-08-01T06:38:35;87510.94;;;16.41;54.61
60049;BME280;45925;45.544;6.756;2022-08-01T06:43:35;87501.16;;;16.35;55.05
60049;BME280;45925;45.544;6.756;2022-08-01T06:48:36;87505.09;;;16.44;54.98
60049;BME280;45925;45.544;6.756;2022-08-01T06:53:39;87504.06;;;16.65;53.82
60049;BME280;45925;45.544;6.756;2022-08-01T06:58:40;87501.22;;;16.86;53.68
60049;BME280;45925;45.544;6.756;2022-08-01T07:03:40;87494.22;;;16.90;54.38
60049;BME280;45925;45.544;6.756;2022-08-01T07:08:41;87494.94;;;17.07;54.32
60049;BME280;45925;45.544;6.756;2022-08-01T07:13:41;87492.34;;;17.26;53.98
60049;BME280;45925;45.544;6.756;2022-08-01T07:18:42;87494.88;;;17.42;53.45
60049;BME280;45925;45.544;6.756;2022-08-01T07:23:42;87486.94;;;17.54;53.16
60049;BME280;45925;45.544;6.756;2022-08-01T07:28:43;87487.94;;;17.69;52.61
60049;BME280;45925;45.544;6.756;2022-08-01T07:33:43;87480.91;;;17.89;51.86
60049;BME280;45925;45.544;6.756;2022-08-01T07:38:45;87488.41;;;17.95;50.89
60049;BME280;45925;45.544;6.756;2022-08-01T07:43:46;87482.41;;;18.14;48.66
60049;BME280;45925;45.544;6.756;2022-08-01T07:48:47;87478.81;;;18.22;47.88
60049;BME280;45925;45.544;6.756;2022-08-01T07:53:48;87474.25;;;18.38;48.05
60049;BME280;45925;45.544;6.756;2022-08-01T07:58:48;87470.34;;;18.52;47.66
60049;BME280;45925;45.544;6.756;2022-08-01T08:03:49;87477.34;;;18.74;46.10
60049;BME280;45925;45.544;6.756;2022-08-01T08:08:49;87461.81;;;19.08;45.76
60049;BME280;45925;45.544;6.756;2022-08-01T08:13:50;87453.56;;;19.03;45.99
60049;BME280;45925;45.544;6.756;2022-08-01T08:18:50;87460.19;;;19.61;45.02
60049;BME280;45925;45.544;6.756;2022-08-01T08:23:51;87457.97;;;19.29;44.21
60049;BME280;45925;45.544;6.756;2022-08-01T08:29:10;87452.81;;;19.36;43.93
60049;BME280;45925;45.544;6.756;2022-08-01T08:34:11;87457.25;;;19.66;43.46
60049;BME280;45925;45.544;6.756;2022-08-01T08:39:12;87448.56;;;19.54;43.59
60049;BME280;45925;45.544;6.756;2022-08-01T08:44:12;87453.16;;;20.06;42.94
60049;BME280;45925;45.544;6.756;2022-08-01T08:49:16;87452.91;;;19.77;43.57
60049;BME280;45925;45.544;6.756;2022-08-01T08:54:20;87449.59;;;20.21;44.29
60049;BME280;45925;45.544;6.756;2022-08-01T08:59:22;87450.16;;;20.52;42.71
60049;BME280;45925;45.544;6.756;2022-08-01T09:04:25;87450.47;;;20.40;42.68
60049;BME280;45925;45.544;6.756;2022-08-01T09:09:26;87450.78;;;20.35;41.67
60049;BME280;45925;45.544;6.756;2022-08-01T09:14:27;87447.97;;;20.58;41.17
60049;BME280;45925;45.544;6.756;2022-08-01T09:19:41;87452.94;;;20.70;40.77
60049;BME280;45925;45.544;6.756;2022-08-01T09:24:42;87444.38;;;20.73;40.40
60049;BME280;45925;45.544;6.756;2022-08-01T09:29:42;87441.22;;;21.09;40.19
60049;BME280;45925;45.544;6.756;2022-08-01T09:34:44;87445.69;;;21.05;39.90
60049;BME280;45925;45.544;6.756;2022-08-01T09:39:54;87441.56;;;21.04;39.67
60049;BME280;45925;45.544;6.756;2022-08-01T09:44:55;87435.31;;;21.26;39.86
60049;BME280;45925;45.544;6.756;2022-08-01T09:49:57;87429.19;;;21.96;39.28
60049;BME280;45925;45.544;6.756;2022-08-01T09:55:00;87422.03;;;21.60;39.85
60049;BME280;45925;45.544;6.756;2022-08-01T10:00:03;87418.31;;;21.76;38.97
60049;BME280;45925;45.544;6.756;2022-08-01T10:05:06;87417.63;;;22.25;37.95
60049;BME280;45925;45.544;6.756;2022-08-01T10:10:12;87419.88;;;22.20;37.84
60049;BME280;45925;45.544;6.756;2022-08-01T10:15:15;87409.03;;;22.39;36.98
60049;BME280;45925;45.544;6.756;2022-08-01T10:20:20;87407.91;;;22.26;37.63
60049;BME280;45925;45.544;6.756;2022-08-01T10:25:21;87399.69;;;22.46;37.37
60049;BME280;45925;45.544;6.756;2022-08-01T10:30:23;87400.06;;;22.51;37.13
60049;BME280;45925;45.544;6.756;2022-08-01T10:35:23;87375.38;;;22.52;36.79
60049;BME280;45925;45.544;6.756;2022-08-01T10:40:24;87378.69;;;22.74;36.77
60049;BME280;45925;45.544;6.756;2022-08-01T10:45:25;87380.13;;;22.97;36.17
60049;BME280;45925;45.544;6.756;2022-08-01T10:50:39;87371.91;;;22.91;31.38
60049;BME280;45925;45.544;6.756;2022-08-01T11:01:20;87360.63;;;23.16;30.99
60049;BME280;45925;45.544;6.756;2022-08-01T11:06:24;87351.56;;;23.28;29.25
60049;BME280;45925;45.544;6.756;2022-08-01T11:11:25;87348.47;;;23.51;26.76
60049;BME280;45925;45.544;6.756;2022-08-01T11:16:36;87336.38;;;23.68;25.88
60049;BME280;45925;45.544;6.756;2022-08-01T11:27:15;87335.56;;;23.85;24.36
60049;BME280;45925;45.544;6.756;2022-08-01T11:32:26;87318.97;;;23.96;24.10
60049;BME280;45925;45.544;6.756;2022-08-01T11:37:28;87328.53;;;24.20;23.22
60049;BME280;45925;45.544;6.756;2022-08-01T11:42:29;87319.03;;;24.34;24.78
60049;BME280;45925;45.544;6.756;2022-08-01T11:52:45;87299.72;;;24.51;24.58
60049;BME280;45925;45.544;6.756;2022-08-01T11:57:47;87297.63;;;24.77;24.33
60049;BME280;45925;45.544;6.756;2022-08-01T12:02:57;87291.97;;;24.78;24.74
60049;BME280;45925;45.544;6.756;2022-08-01T12:07:59;87279.97;;;24.77;24.46
60049;BME280;45925;45.544;6.756;2022-08-01T12:13:01;87276.69;;;25.01;25.54
60049;BME280;45925;45.544;6.756;2022-08-01T12:18:04;87274.84;;;25.01;25.60
60049;BME280;45925;45.544;6.756;2022-08-01T12:23:07;87269.69;;;25.21;25.13
60049;BME280;45925;45.544;6.756;2022-08-01T12:28:08;87268.91;;;25.24;24.72
60049;BME280;45925;45.544;6.756;2022-08-01T12:33:10;87260.38;;;25.44;25.08
60049;BME280;45925;45.544;6.756;2022-08-01T12:38:19;87267.75;;;25.56;25.79
60049;BME280;45925;45.544;6.756;2022-08-01T12:43:23;87274.94;;;25.79;25.61
60049;BME280;45925;45.544;6.756;2022-08-01T12:48:27;87269.50;;;25.66;24.78
60049;BME280;45925;45.544;6.756;2022-08-01T12:53:28;87273.75;;;25.84;25.92
60049;BME280;45925;45.544;6.756;2022-08-01T12:58:33;87278.03;;;26.25;25.17
60049;BME280;45925;45.544;6.756;2022-08-01T13:03:33;87279.19;;;26.24;24.35
60049;BME280;45925;45.544;6.756;2022-08-01T13:08:34;87285.34;;;26.37;23.20
60049;BME280;45925;45.544;6.756;2022-08-01T13:13:42;87268.16;;;26.53;24.95
60049;BME280;45925;45.544;6.756;2022-08-01T13:18:56;87256.25;;;26.68;23.28
60049;BME280;45925;45.544;6.756;2022-08-01T13:29:09;87282.19;;;26.90;22.46
60049;BME280;45925;45.544;6.756;2022-08-01T13:34:11;87298.25;;;27.19;21.99
60049;BME280;45925;45.544;6.756;2022-08-01T13:39:11;87297.97;;;26.93;22.19
60049;BME280;45925;45.544;6.756;2022-08-01T13:44:30;87285.81;;;27.93;20.32
60049;BME280;45925;45.544;6.756;2022-08-01T13:49:31;87290.69;;;29.35;18.71
60049;BME280;45925;45.544;6.756;2022-08-01T13:54:32;87285.28;;;30.07;17.46
60049;BME280;45925;45.544;6.756;2022-08-01T13:59:33;87302.50;;;31.11;15.75
